Time;durP1;ratioP1;P1;durP2;ratioP2;P2;SDS_P1;SDS_P2;PMS_P1;PMS_P2;Temp;Humidity;BMP_temperature;BMP_pressure;BME280_temperature;BME280_humidity;BME280_pressure;Samples;Min_cycle;Max_cycle;Signal;HPM_P1;HPM_P2
2023/07/08 00:01:22;;;;;;;16.38;12.98;;;;;;;;;;5014652;28;20030;-66
2023/07/08 00:03:48;;;;;;;14.25;11.43;;;;;;;;;;5014471;28;20390;-66
2023/07/08 00:06:22;;;;;;;16.65;11.50;;;;;;;;;;5014598;28;20022;-65
2023/07/08 00:08:47;;;;;;;11.07;8.80;;;;;;;;;;5014753;28;20025;-67
2023/07/08 00:11:15;;;;;;;14.05;8.23;;;;;;;;;;5014695;28;20026;-65
2023/07/08 00:13:40;;;;;;;12.27;7.78;;;;;;;;;;5014437;28;20084;-65
2023/07/08 00:16:15;;;;;;;13.73;7.32;;;;;;;;;;5014216;28;20431;-66
2023/07/08 00:18:40;;;;;;;12.00;8.32;;;;;;;;;;5014441;28;20026;-65
2023/07/08 00:21:15;;;;;;;11.45;8.25;;;;;;;;;;4996727;28;20063;-66
2023/07/08 00:23:45;;;;;;;14.13;7.63;;;;;;;;;;5014140;28;20168;-66
2023/07/08 00:26:18;;;;;;;11.52;7.22;;;;;;;;;;5014201;28;20026;-66
2023/07/08 00:28:43;;;;;;;11.55;7.40;;;;;;;;;;5014148;28;20056;-66
2023/07/08 00:31:12;;;;;;;10.55;7.55;;;;;;;;;;5014037;28;20435;-69
2023/07/08 00:33:37;;;;;;;10.32;6.63;;;;;;;;;;5014336;28;20406;-67
2023/07/08 00:36:12;;;;;;;10.88;6.35;;;;;;;;;;5014126;28;20556;-67
2023/07/08 00:38:38;;;;;;;11.00;7.13;;;;;;;;;;5014095;28;20030;-66
2023/07/08 00:41:06;;;;;;;10.13;6.13;;;;;;;;;;5013828;28;20382;-67
2023/07/08 00:43:41;;;;;;;11.90;7.75;;;;;;;;;;5013801;28;20113;-66
2023/07/08 00:46:29;;;;;;;12.27;7.47;;;;;;;;;;5013290;28;20030;-66
2023/07/08 00:49:06;;;;;;;10.55;6.88;;;;;;;;;;5013432;28;20065;-65
2023/07/08 00:51:39;;;;;;;11.32;7.28;;;;;;;;;;5013863;28;20088;-66
2023/07/08 00:54:18;;;;;;;9.82;7.22;;;;;;;;;;5013961;28;20036;-66
2023/07/08 00:56:55;;;;;;;9.60;5.55;;;;;;;;;;5013802;28;20025;-65
2023/07/08 00:59:32;;;;;;;14.48;6.53;;;;;;;;;;5013678;28;20030;-67
2023/07/08 01:02:01;;;;;;;11.43;6.32;;;;;;;;;;4996256;28;20058;-66
2023/07/08 01:04:47;;;;;;;8.38;5.43;;;;;;;;;;5013506;28;20539;-65
2023/07/08 01:07:12;;;;;;;8.00;5.60;;;;;;;;;;5013670;28;20025;-66
2023/07/08 01:09:44;;;;;;;9.73;5.43;;;;;;;;;;5013450;28;20025;-66
2023/07/08 01:12:22;;;;;;;7.28;5.38;;;;;;;;;;5013587;28;20033;-66
2023/07/08 01:14:48;;;;;;;9.82;5.18;;;;;;;;;;5013211;28;20017;-66
2023/07/08 01:17:14;;;;;;;9.15;5.18;;;;;;;;;;5013469;28;20053;-66
2023/07/08 01:19:41;;;;;;;10.70;6.05;;;;;;;;;;5013308;28;20053;-66
2023/07/08 01:22:07;;;;;;;12.80;6.03;;;;;;;;;;5013535;28;20022;-66
2023/07/08 01:24:36;;;;;;;8.68;5.00;;;;;;;;;;5013150;28;20038;-66
2023/07/08 01:27:05;;;;;;;8.27;5.20;;;;;;;;;;5013380;28;20057;-66
2023/07/08 01:29:31;;;;;;;7.63;4.88;;;;;;;;;;5012946;28;20018;-66
2023/07/08 01:31:58;;;;;;;8.93;5.43;;;;;;;;;;5013264;28;20460;-66
2023/07/08 01:34:24;;;;;;;8.27;5.43;;;;;;;;;;5013136;28;20057;-68
2023/07/08 01:36:55;;;;;;;9.27;5.30;;;;;;;;;;5013222;28;20046;-65
2023/07/08 01:39:22;;;;;;;8.98;5.30;;;;;;;;;;5013185;28;20119;-65
2023/07/08 01:41:48;;;;;;;12.25;5.10;;;;;;;;;;5012806;28;20438;-65
2023/07/08 01:44:24;;;;;;;9.48;5.53;;;;;;;;;;5012522;28;20041;-66
2023/07/08 01:46:51;;;;;;;7.82;5.30;;;;;;;;;;5013054;28;20030;-66
2023/07/08 01:49:19;;;;;;;9.32;5.05;;;;;;;;;;5012969;28;20033;-67
2023/07/08 01:51:45;;;;;;;9.65;4.80;;;;;;;;;;5012889;28;20037;-70
2023/07/08 01:54:11;;;;;;;8.45;4.95;;;;;;;;;;5012987;28;20026;-70
2023/07/08 01:56:36;;;;;;;7.90;5.00;;;;;;;;;;5011865;28;20370;-71
2023/07/08 01:59:02;;;;;;;9.73;5.30;;;;;;;;;;5012727;28;20025;-70
2023/07/08 02:01:27;;;;;;;8.77;4.97;;;;;;;;;;5012686;28;20026;-70
2023/07/08 02:03:52;;;;;;;7.60;4.93;;;;;;;;;;4994769;28;20040;-70
2023/07/08 02:06:19;;;;;;;8.60;4.95;;;;;;;;;;5012843;28;20032;-70
2023/07/08 02:08:44;;;;;;;8.68;4.63;;;;;;;;;;5012826;28;20033;-71
2023/07/08 02:11:10;;;;;;;9.65;4.55;;;;;;;;;;4995088;28;20419;-69
2023/07/08 02:13:35;;;;;;;6.65;5.30;;;;;;;;;;5012451;28;20360;-66
2023/07/08 02:16:01;;;;;;;8.45;5.13;;;;;;;;;;5012610;28;20026;-66
2023/07/08 02:18:26;;;;;;;8.25;4.75;;;;;;;;;;5012628;28;20087;-66
2023/07/08 02:20:52;;;;;;;9.73;5.22;;;;;;;;;;5012576;28;20034;-66
2023/07/08 02:23:18;;;;;;;7.72;5.18;;;;;;;;;;5012638;28;20356;-66
2023/07/08 02:25:53;;;;;;;11.38;5.60;;;;;;;;;;5012377;28;20026;-65
2023/07/08 02:28:19;;;;;;;7.20;5.40;;;;;;;;;;5012289;28;20088;-66
2023/07/08 02:30:46;;;;;;;8.93;5.03;;;;;;;;;;5012524;28;20022;-66
2023/07/08 02:33:12;;;;;;;9.25;4.88;;;;;;;;;;5012500;28;20096;-66
2023/07/08 02:35:37;;;;;;;9.25;5.38;;;;;;;;;;5012343;28;20025;-67
2023/07/08 02:38:03;;;;;;;9.57;4.70;;;;;;;;;;5012676;28;20037;-66
2023/07/08 02:40:28;;;;;;;11.05;5.50;;;;;;;;;;5016593;28;20025;-66
2023/07/08 02:42:54;;;;;;;15.80;5.63;;;;;;;;;;5011859;28;20052;-66
2023/07/08 02:45:20;;;;;;;13.43;5.47;;;;;;;;;;5012262;28;20045;-66
2023/07/08 02:47:46;;;;;;;8.98;5.10;;;;;;;;;;5012313;28;20033;-66
2023/07/08 02:50:12;;;;;;;8.50;5.60;;;;;;;;;;5012259;28;20410;-66
2023/07/08 02:52:37;;;;;;;7.90;4.78;;;;;;;;;;5012651;28;20164;-66
2023/07/08 02:55:03;;;;;;;8.18;4.43;;;;;;;;;;5012225;28;20101;-66
2023/07/08 02:57:29;;;;;;;7.53;4.65;;;;;;;;;;5012008;28;20026;-65
2023/07/08 02:59:54;;;;;;;6.00;4.20;;;;;;;;;;5012252;28;20036;-66
2023/07/08 03:02:22;;;;;;;5.80;4.35;;;;;;;;;;4994553;28;20022;-66
2023/07/08 03:04:49;;;;;;;6.13;4.28;;;;;;;;;;5012016;28;20475;-66
2023/07/08 03:07:16;;;;;;;9.10;4.90;;;;;;;;;;5012012;28;20371;-66
2023/07/08 03:09:41;;;;;;;13.15;4.45;;;;;;;;;;5015135;28;20033;-66
2023/07/08 03:12:08;;;;;;;9.52;4.40;;;;;;;;;;5015979;28;20037;-66
2023/07/08 03:14:34;;;;;;;8.38;4.72;;;;;;;;;;5015617;28;20558;-66
2023/07/08 03:16:59;;;;;;;11.18;4.35;;;;;;;;;;5015715;28;20033;-66
2023/07/08 03:19:25;;;;;;;8.02;4.93;;;;;;;;;;5015734;28;20446;-66
2023/07/08 03:21:51;;;;;;;9.38;4.90;;;;;;;;;;5015410;28;20021;-66
2023/07/08 03:24:17;;;;;;;7.13;4.20;;;;;;;;;;5015183;28;20384;-65
2023/07/08 03:26:44;;;;;;;8.90;4.70;;;;;;;;;;5015506;28;20108;-67
2023/07/08 03:29:14;;;;;;;8.25;4.25;;;;;;;;;;5015441;28;20034;-66
2023/07/08 03:31:40;;;;;;;7.85;5.07;;;;;;;;;;5015188;28;20030;-67
2023/07/08 03:34:07;;;;;;;10.13;4.72;;;;;;;;;;5015447;28;20037;-65
2023/07/08 03:36:32;;;;;;;10.52;4.78;;;;;;;;;;5015504;28;20041;-66
2023/07/08 03:38:58;;;;;;;15.38;4.68;;;;;;;;;;5015130;28;20026;-67
2023/07/08 03:41:24;;;;;;;10.18;4.53;;;;;;;;;;5015003;28;20030;-66
2023/07/08 03:43:52;;;;;;;13.13;4.70;;;;;;;;;;4997283;28;20108;-66
2023/07/08 03:46:20;;;;;;;10.70;4.45;;;;;;;;;;5015254;28;20068;-66
2023/07/08 03:48:47;;;;;;;6.82;4.55;;;;;;;;;;5015283;28;20421;-67
2023/07/08 03:51:33;;;;;;;10.63;4.63;;;;;;;;;;5015030;28;20133;-66
2023/07/08 03:53:59;;;;;;;9.18;4.15;;;;;;;;;;5014713;28;20038;-66
2023/07/08 03:56:24;;;;;;;8.50;4.25;;;;;;;;;;5015086;28;20022;-66
2023/07/08 03:58:50;;;;;;;6.22;4.38;;;;;;;;;;5014989;28;20025;-66
2023/07/08 04:01:21;;;;;;;6.53;4.10;;;;;;;;;;5014840;28;20033;-65
2023/07/08 04:03:47;;;;;;;5.75;4.10;;;;;;;;;;5014671;28;20390;-66
2023/07/08 04:06:13;;;;;;;9.73;4.28;;;;;;;;;;5014766;28;20033;-67
2023/07/08 04:08:39;;;;;;;10.30;4.07;;;;;;;;;;5014828;28;20034;-66
2023/07/08 04:11:04;;;;;;;7.55;4.53;;;;;;;;;;5014690;28;20029;-66
2023/07/08 04:13:30;;;;;;;7.68;4.90;;;;;;;;;;5014897;28;20430;-66
2023/07/08 04:16:02;;;;;;;6.47;4.13;;;;;;;;;;5014842;28;20392;-66
2023/07/08 04:18:28;;;;;;;8.85;3.83;;;;;;;;;;5014895;28;20026;-66
2023/07/08 04:20:53;;;;;;;8.73;3.58;;;;;;;;;;5013650;28;20113;-67
2023/07/08 04:23:20;;;;;;;9.48;4.03;;;;;;;;;;5014492;28;20030;-67
2023/07/08 04:25:47;;;;;;;13.55;4.60;;;;;;;;;;5014656;28;20216;-66
2023/07/08 04:28:13;;;;;;;9.68;3.83;;;;;;;;;;5014675;28;20033;-66
2023/07/08 04:30:41;;;;;;;8.60;4.22;;;;;;;;;;5014544;28;20371;-66
2023/07/08 04:33:16;;;;;;;8.13;3.90;;;;;;;;;;5014424;28;20073;-66
2023/07/08 04:35:43;;;;;;;6.75;3.80;;;;;;;;;;5014576;28;20088;-69
2023/07/08 04:38:21;;;;;;;6.30;4.03;;;;;;;;;;5014459;28;20018;-69
2023/07/08 04:40:47;;;;;;;8.10;3.72;;;;;;;;;;5014181;28;20022;-70
2023/07/08 04:43:14;;;;;;;9.65;3.50;;;;;;;;;;5014089;28;20479;-68
2023/07/08 04:45:41;;;;;;;7.35;3.58;;;;;;;;;;5014261;28;20096;-67
2023/07/08 04:48:12;;;;;;;6.85;3.80;;;;;;;;;;5014455;28;20026;-70
2023/07/08 04:50:41;;;;;;;6.68;3.70;;;;;;;;;;5014327;28;20029;-67
2023/07/08 04:53:07;;;;;;;6.10;3.60;;;;;;;;;;5013854;28;20379;-68
2023/07/08 04:55:33;;;;;;;6.38;3.50;;;;;;;;;;5014327;28;20034;-67
2023/07/08 04:57:58;;;;;;;6.65;3.40;;;;;;;;;;5014088;28;20030;-67
2023/07/08 05:00:23;;;;;;;8.07;3.33;;;;;;;;;;5014001;28;20109;-66
2023/07/08 05:02:49;;;;;;;5.85;3.10;;;;;;;;;;5014149;28;20030;-68
2023/07/08 05:05:14;;;;;;;8.80;3.00;;;;;;;;;;5013855;28;20403;-67
2023/07/08 05:07:40;;;;;;;15.70;3.58;;;;;;;;;;5013762;28;20026;-67
2023/07/08 05:10:06;;;;;;;8.70;2.95;;;;;;;;;;5013935;28;20494;-67
2023/07/08 05:12:31;;;;;;;7.03;3.15;;;;;;;;;;5013620;28;20061;-66
2023/07/08 05:14:56;;;;;;;12.45;3.22;;;;;;;;;;5013792;28;20022;-67
2023/07/08 05:17:22;;;;;;;6.47;2.42;;;;;;;;;;5013767;28;20025;-66
2023/07/08 05:19:50;;;;;;;3.65;2.17;;;;;;;;;;5013659;28;20022;-66
2023/07/08 05:22:18;;;;;;;4.72;2.15;;;;;;;;;;5013626;28;20018;-67
2023/07/08 05:24:43;;;;;;;5.78;2.38;;;;;;;;;;5013739;28;20030;-66
2023/07/08 05:27:09;;;;;;;5.50;2.42;;;;;;;;;;5013839;28;20113;-66
2023/07/08 05:29:34;;;;;;;5.72;2.42;;;;;;;;;;5013672;28;20372;-68
2023/07/08 05:31:59;;;;;;;5.57;2.50;;;;;;;;;;5012988;28;20057;-67
2023/07/08 05:34:25;;;;;;;3.60;2.28;;;;;;;;;;5013562;28;20067;-67
2023/07/08 05:36:50;;;;;;;4.65;2.30;;;;;;;;;;5013344;28;20083;-66
2023/07/08 05:39:16;;;;;;;4.95;1.98;;;;;;;;;;5013407;28;20059;-66
2023/07/08 05:41:41;;;;;;;3.10;2.17;;;;;;;;;;5013049;28;20057;-66
2023/07/08 05:44:06;;;;;;;6.90;2.40;;;;;;;;;;5013128;28;20097;-67
2023/07/08 05:46:32;;;;;;;4.43;2.72;;;;;;;;;;5013378;28;20022;-66
2023/07/08 05:48:58;;;;;;;4.13;1.98;;;;;;;;;;5013409;28;20018;-66
2023/07/08 05:51:23;;;;;;;4.72;2.03;;;;;;;;;;5013067;28;20113;-67
2023/07/08 05:53:48;;;;;;;4.82;2.08;;;;;;;;;;5013107;28;20030;-66
2023/07/08 05:56:14;;;;;;;4.38;2.20;;;;;;;;;;5013253;28;20381;-66
2023/07/08 05:58:39;;;;;;;3.47;1.90;;;;;;;;;;5013222;28;20026;-66
2023/07/08 06:01:05;;;;;;;3.63;2.40;;;;;;;;;;5013102;28;20056;-66
2023/07/08 06:03:30;;;;;;;7.40;2.30;;;;;;;;;;5013285;28;20025;-66
2023/07/08 06:05:56;;;;;;;5.35;2.33;;;;;;;;;;5012539;28;20145;-66
2023/07/08 06:08:22;;;;;;;3.65;1.90;;;;;;;;;;5013071;28;20471;-66
2023/07/08 06:10:47;;;;;;;3.55;2.13;;;;;;;;;;5013016;28;20029;-66
2023/07/08 06:13:13;;;;;;;7.45;2.20;;;;;;;;;;5012807;28;20060;-66
2023/07/08 06:15:39;;;;;;;5.22;2.25;;;;;;;;;;5012708;28;20079;-66
2023/07/08 06:18:05;;;;;;;4.30;2.22;;;;;;;;;;5012996;28;20025;-66
2023/07/08 06:20:30;;;;;;;3.92;1.98;;;;;;;;;;5012690;28;20364;-67
2023/07/08 06:22:56;;;;;;;5.57;2.25;;;;;;;;;;5012547;28;20037;-66
2023/07/08 06:25:21;;;;;;;4.95;2.50;;;;;;;;;;5012724;28;20430;-66
2023/07/08 06:27:47;;;;;;;4.53;2.42;;;;;;;;;;5012611;28;20491;-66
2023/07/08 06:30:12;;;;;;;4.60;1.95;;;;;;;;;;5012742;28;20383;-70
2023/07/08 06:32:38;;;;;;;3.40;1.85;;;;;;;;;;5012536;28;20356;-69
2023/07/08 06:35:04;;;;;;;3.30;2.03;;;;;;;;;;5012482;28;20030;-68
2023/07/08 06:37:29;;;;;;;3.88;2.20;;;;;;;;;;5012709;28;20037;-69
2023/07/08 06:39:55;;;;;;;4.53;2.22;;;;;;;;;;5012440;28;20348;-67
2023/07/08 06:42:20;;;;;;;3.63;2.08;;;;;;;;;;5012512;28;20018;-68
2023/07/08 06:44:50;;;;;;;6.22;2.22;;;;;;;;;;5016090;28;20054;-66
2023/07/08 06:47:20;;;;;;;3.35;1.73;;;;;;;;;;5016455;28;20109;-67
2023/07/08 06:49:46;;;;;;;8.27;2.22;;;;;;;;;;5016509;28;20026;-67
2023/07/08 06:52:11;;;;;;;6.00;2.20;;;;;;;;;;5016360;28;20394;-67
2023/07/08 06:54:37;;;;;;;3.70;1.92;;;;;;;;;;5016365;28;20022;-69
2023/07/08 06:57:02;;;;;;;8.30;2.42;;;;;;;;;;5016322;28;20370;-68
2023/07/08 06:59:28;;;;;;;4.00;2.03;;;;;;;;;;5016388;28;20048;-67
2023/07/08 07:01:54;;;;;;;6.30;2.45;;;;;;;;;;5016121;28;20073;-66
2023/07/08 07:04:19;;;;;;;6.78;2.30;;;;;;;;;;5016200;28;20494;-67
2023/07/08 07:06:45;;;;;;;6.05;2.17;;;;;;;;;;5016278;28;20022;-66
2023/07/08 07:09:10;;;;;;;4.97;2.30;;;;;;;;;;5016223;28;20096;-67
2023/07/08 07:11:36;;;;;;;5.70;2.20;;;;;;;;;;5015925;28;20025;-66
2023/07/08 07:14:02;;;;;;;5.13;2.13;;;;;;;;;;5015940;28;20030;-66
2023/07/08 07:16:27;;;;;;;6.65;2.55;;;;;;;;;;5015803;28;20034;-66
2023/07/08 07:18:53;;;;;;;5.55;2.20;;;;;;;;;;5015978;28;20033;-67
2023/07/08 07:21:18;;;;;;;5.40;2.28;;;;;;;;;;5015730;28;20030;-66
2023/07/08 07:23:44;;;;;;;7.20;2.63;;;;;;;;;;5015596;28;20077;-70
2023/07/08 07:26:09;;;;;;;3.92;2.40;;;;;;;;;;5015841;28;20483;-66
2023/07/08 07:28:34;;;;;;;4.72;2.53;;;;;;;;;;5015800;28;20080;-66
2023/07/08 07:31:00;;;;;;;6.80;2.72;;;;;;;;;;5015425;28;20514;-67
2023/07/08 07:33:26;;;;;;;7.05;2.70;;;;;;;;;;5015714;28;20026;-66
2023/07/08 07:35:52;;;;;;;3.78;2.30;;;;;;;;;;5015706;28;20026;-69
2023/07/08 07:38:17;;;;;;;7.40;2.70;;;;;;;;;;5015692;28;20424;-69
2023/07/08 07:40:44;;;;;;;6.53;2.55;;;;;;;;;;5015430;28;20022;-66
2023/07/08 07:43:10;;;;;;;9.25;2.63;;;;;;;;;;5013413;28;20095;-66
2023/07/08 07:45:35;;;;;;;7.90;2.60;;;;;;;;;;5011171;28;20064;-66
2023/07/08 07:48:01;;;;;;;5.07;2.53;;;;;;;;;;5013803;28;20151;-67
2023/07/08 07:50:27;;;;;;;3.15;2.13;;;;;;;;;;5013484;28;20022;-68
2023/07/08 07:52:52;;;;;;;4.80;2.40;;;;;;;;;;5013451;28;20108;-66
2023/07/08 07:55:18;;;;;;;5.10;2.00;;;;;;;;;;5013245;28;20040;-68
2023/07/08 07:57:45;;;;;;;4.47;2.40;;;;;;;;;;4995958;28;20041;-67
2023/07/08 08:00:11;;;;;;;5.10;2.22;;;;;;;;;;5013324;28;20033;-67
2023/07/08 08:02:37;;;;;;;3.22;2.03;;;;;;;;;;5011928;28;20026;-66
2023/07/08 08:05:02;;;;;;;7.22;2.55;;;;;;;;;;5011969;28;20041;-66
2023/07/08 08:07:28;;;;;;;3.90;2.30;;;;;;;;;;5012994;28;20164;-67
2023/07/08 08:09:53;;;;;;;4.90;2.33;;;;;;;;;;5012897;28;20029;-67
2023/07/08 08:12:19;;;;;;;7.18;2.00;;;;;;;;;;5012369;28;20033;-66
2023/07/08 08:14:44;;;;;;;4.35;1.90;;;;;;;;;;5012234;28;20036;-67
2023/07/08 08:17:10;;;;;;;6.20;1.92;;;;;;;;;;5013108;28;20399;-67
2023/07/08 08:19:35;;;;;;;4.05;2.05;;;;;;;;;;5010734;28;20057;-66
2023/07/08 08:22:01;;;;;;;9.02;2.70;;;;;;;;;;5012683;28;20044;-67
2023/07/08 08:24:27;;;;;;;3.75;2.13;;;;;;;;;;5012904;28;20132;-68
2023/07/08 08:26:52;;;;;;;3.80;2.08;;;;;;;;;;5012868;28;20057;-66
2023/07/08 08:29:17;;;;;;;3.55;1.75;;;;;;;;;;5012653;28;20026;-67
2023/07/08 08:31:43;;;;;;;4.65;2.28;;;;;;;;;;5011700;28;20080;-66
2023/07/08 08:34:08;;;;;;;5.25;1.98;;;;;;;;;;5012578;28;20064;-66
2023/07/08 08:36:34;;;;;;;7.38;2.28;;;;;;;;;;5012064;28;20099;-67
2023/07/08 08:38:59;;;;;;;3.88;2.28;;;;;;;;;;5011672;28;20545;-67
2023/07/08 08:41:37;;;;;;;4.68;2.10;;;;;;;;;;5011815;28;20022;-66
2023/07/08 08:44:04;;;;;;;4.28;1.90;;;;;;;;;;5011588;28;20140;-66
2023/07/08 08:46:50;;;;;;;4.35;2.30;;;;;;;;;;5011579;28;20034;-66
2023/07/08 08:49:21;;;;;;;5.70;2.17;;;;;;;;;;5012406;28;20030;-66
2023/07/08 08:51:48;;;;;;;4.88;2.28;;;;;;;;;;5012255;28;20033;-66
2023/07/08 08:54:14;;;;;;;7.35;2.00;;;;;;;;;;4994736;28;20029;-66
2023/07/08 08:57:11;;;;;;;5.15;1.88;;;;;;;;;;5012397;28;20033;-66
2023/07/08 08:59:43;;;;;;;6.10;2.45;;;;;;;;;;5011948;28;20037;-67
2023/07/08 09:02:39;;;;;;;6.03;2.03;;;;;;;;;;5011403;28;20390;-68
2023/07/08 09:05:08;;;;;;;3.10;2.10;;;;;;;;;;5011500;28;20033;-66
2023/07/08 09:07:45;;;;;;;4.93;2.10;;;;;;;;;;5010998;28;20395;-67
2023/07/08 09:10:25;;;;;;;6.32;2.10;;;;;;;;;;5011300;28;20313;-67
2023/07/08 09:12:52;;;;;;;;;;;;;;;;;;5010851;28;20029;-66
2023/07/08 09:15:18;;;;;;;3.35;1.98;;;;;;;;;;5006688;28;20207;-66
2023/07/08 09:17:44;;;;;;;5.57;2.20;;;;;;;;;;5010328;28;20029;-68
2023/07/08 09:20:19;;;;;;;3.83;1.70;;;;;;;;;;5009941;28;20030;-66
2023/07/08 09:22:54;;;;;;;2.95;1.88;;;;;;;;;;5016078;28;20060;-66
2023/07/08 09:25:26;;;;;;;5.70;1.90;;;;;;;;;;5015851;28;20026;-67
2023/07/08 09:27:52;;;;;;;4.43;2.20;;;;;;;;;;5013509;28;20053;-66
2023/07/08 09:30:21;;;;;;;4.53;1.85;;;;;;;;;;5013517;28;20566;-65
2023/07/08 09:32:47;;;;;;;4.03;1.90;;;;;;;;;;5013490;28;20029;-65
2023/07/08 09:35:28;;;;;;;3.75;1.95;;;;;;;;;;5013476;28;20037;-65
2023/07/08 09:37:54;;;;;;;2.95;1.73;;;;;;;;;;5013453;28;20030;-65
2023/07/08 09:40:30;;;;;;;4.63;1.70;;;;;;;;;;5011656;28;20041;-65
2023/07/08 09:43:16;;;;;;;4.60;1.80;;;;;;;;;;5011126;28;20049;-65
2023/07/08 09:45:46;;;;;;;4.78;1.80;;;;;;;;;;5032866;28;20026;-65
2023/07/08 09:48:26;;;;;;;8.38;2.10;;;;;;;;;;5032803;28;20025;-65
2023/07/08 09:50:54;;;;;;;3.03;1.88;;;;;;;;;;5033093;28;20556;-66
2023/07/08 09:53:19;;;;;;;3.55;1.88;;;;;;;;;;5032924;28;20045;-64
2023/07/08 09:55:46;;;;;;;7.00;1.92;;;;;;;;;;5032693;28;20033;-64
2023/07/08 09:58:17;;;;;;;4.68;1.83;;;;;;;;;;5032908;28;20113;-66
2023/07/08 10:00:42;;;;;;;5.40;1.88;;;;;;;;;;5027299;28;20479;-65
2023/07/08 10:03:28;;;;;;;4.35;1.83;;;;;;;;;;5012922;28;20060;-65
2023/07/08 10:05:57;;;;;;;4.35;1.80;;;;;;;;;;5012532;28;20084;-67
2023/07/08 10:08:24;;;;;;;5.38;2.17;;;;;;;;;;5012395;28;20026;-64
2023/07/08 10:10:58;;;;;;;4.55;1.92;;;;;;;;;;5012403;28;20034;-64
2023/07/08 10:13:47;;;;;;;5.00;1.80;;;;;;;;;;5011712;28;20144;-65
2023/07/08 10:16:33;;;;;;;4.57;1.92;;;;;;;;;;5008253;28;20029;-66
2023/07/08 10:19:00;;;;;;;3.05;1.90;;;;;;;;;;5017810;28;20025;-65
2023/07/08 10:21:43;;;;;;;3.65;2.10;;;;;;;;;;4997333;28;20491;-65
2023/07/08 10:24:14;;;;;;;5.00;2.00;;;;;;;;;;4992974;28;20113;-65
2023/07/08 10:26:40;;;;;;;8.43;2.10;;;;;;;;;;5005166;28;20092;-65
2023/07/08 10:29:14;;;;;;;6.45;2.30;;;;;;;;;;5012213;28;20029;-67
2023/07/08 10:31:51;;;;;;;3.17;1.80;;;;;;;;;;5012554;28;20426;-65
2023/07/08 10:34:26;;;;;;;5.13;2.17;;;;;;;;;;5012633;28;20030;-67
2023/07/08 10:37:10;;;;;;;5.07;2.10;;;;;;;;;;5012644;28;20030;-65
2023/07/08 10:40:01;;;;;;;5.70;2.10;;;;;;;;;;5011606;28;20030;-67
2023/07/08 10:43:03;;;;;;;3.67;2.08;;;;;;;;;;4913871;29;20533;-67
2023/07/08 10:45:46;;;;;;;5.47;2.13;;;;;;;;;;4914043;29;20184;-66
2023/07/08 10:48:29;;;;;;;4.65;2.40;;;;;;;;;;4914089;29;20402;-67
2023/07/08 10:51:03;;;;;;;3.45;2.10;;;;;;;;;;4914074;29;20398;-65
2023/07/08 10:53:41;;;;;;;4.28;2.25;;;;;;;;;;4914107;29;20036;-65
2023/07/08 10:56:20;;;;;;;3.92;2.20;;;;;;;;;;4914196;29;20036;-66
2023/07/08 10:59:18;;;;;;;6.10;3.00;;;;;;;;;;4914026;29;20043;-66
2023/07/08 11:01:49;;;;;;;3.58;2.17;;;;;;;;;;4913902;29;20060;-67
2023/07/08 11:04:17;;;;;;;6.40;2.42;;;;;;;;;;4946028;29;20038;-67
2023/07/08 11:07:02;;;;;;;5.45;2.28;;;;;;;;;;4951992;29;20050;-67
2023/07/08 11:09:35;;;;;;;6.57;2.95;;;;;;;;;;4951928;29;20074;-67
2023/07/08 11:12:24;;;;;;;5.88;2.08;;;;;;;;;;4951648;29;20130;-67
2023/07/08 11:14:56;;;;;;;4.25;2.30;;;;;;;;;;4922202;29;20032;-66
2023/07/08 11:17:40;;;;;;;4.03;2.05;;;;;;;;;;4932838;29;20038;-66
2023/07/08 11:20:16;;;;;;;3.22;2.25;;;;;;;;;;5002986;28;20042;-67
2023/07/08 11:22:53;;;;;;;5.70;2.45;;;;;;;;;;5011343;28;20034;-67
2023/07/08 11:25:21;;;;;;;4.60;2.17;;;;;;;;;;5011915;28;20063;-66
2023/07/08 11:27:51;;;;;;;6.72;2.17;;;;;;;;;;5011951;28;20030;-65
2023/07/08 11:30:22;;;;;;;5.72;2.00;;;;;;;;;;5014720;28;20026;-66
2023/07/08 11:32:57;;;;;;;3.30;2.00;;;;;;;;;;5015818;28;20025;-67
2023/07/08 11:35:42;;;;;;;3.47;1.98;;;;;;;;;;5015800;28;20022;-67
2023/07/08 11:38:15;;;;;;;4.20;2.00;;;;;;;;;;5019145;28;20030;-67
2023/07/08 11:41:04;;;;;;;5.00;2.20;;;;;;;;;;5024567;28;20030;-64
2023/07/08 11:43:46;;;;;;;3.90;1.92;;;;;;;;;;5013607;28;20096;-65
2023/07/08 11:46:17;;;;;;;4.75;1.90;;;;;;;;;;5012636;28;20514;-67
2023/07/08 11:48:50;;;;;;;8.00;2.50;;;;;;;;;;4995697;28;20491;-67
2023/07/08 11:51:24;;;;;;;4.38;2.20;;;;;;;;;;4995751;28;20849;-67
2023/07/08 11:53:59;;;;;;;4.25;1.95;;;;;;;;;;4995552;28;20052;-65
2023/07/08 11:56:25;;;;;;;5.05;2.20;;;;;;;;;;4995737;28;20034;-66
2023/07/08 11:58:59;;;;;;;4.63;2.20;;;;;;;;;;4995699;28;20034;-66
2023/07/08 12:01:45;;;;;;;5.78;2.03;;;;;;;;;;4995696;28;20109;-66
2023/07/08 12:04:27;;;;;;;4.03;2.00;;;;;;;;;;4995507;28;20022;-66
2023/07/08 12:07:30;;;;;;;4.57;2.00;;;;;;;;;;4995200;28;20073;-65
2023/07/08 12:10:05;;;;;;;7.18;2.10;;;;;;;;;;4985494;28;20132;-66
2023/07/08 12:12:36;;;;;;;2.90;2.10;;;;;;;;;;4995435;28;20081;-67
2023/07/08 12:15:29;;;;;;;2.92;1.70;;;;;;;;;;5005641;28;20052;-65
2023/07/08 12:18:01;;;;;;;5.75;1.80;;;;;;;;;;5012501;28;20049;-65
2023/07/08 12:20:32;;;;;;;4.93;2.03;;;;;;;;;;5014881;28;20498;-65
2023/07/08 12:23:00;;;;;;;7.18;2.03;;;;;;;;;;5014534;28;20037;-65
2023/07/08 12:25:32;;;;;;;3.13;2.03;;;;;;;;;;5014619;28;20557;-67
2023/07/08 12:27:58;;;;;;;4.05;1.83;;;;;;;;;;4994975;28;20039;-68
2023/07/08 12:30:27;;;;;;;5.97;2.20;;;;;;;;;;4995048;28;20033;-65
2023/07/08 12:32:55;;;;;;;5.45;2.00;;;;;;;;;;4999237;28;20030;-65
2023/07/08 12:35:25;;;;;;;3.85;2.15;;;;;;;;;;5014374;28;20018;-65
2023/07/08 12:38:00;;;;;;;5.53;2.42;;;;;;;;;;5014531;28;20022;-66
2023/07/08 12:40:27;;;;;;;6.78;2.45;;;;;;;;;;5013767;28;20041;-66
2023/07/08 12:42:54;;;;;;;5.95;2.53;;;;;;;;;;5014147;28;20046;-65
2023/07/08 12:45:22;;;;;;;7.93;2.28;;;;;;;;;;5014388;28;20026;-68
2023/07/08 12:47:48;;;;;;;6.43;2.70;;;;;;;;;;5014300;28;20471;-68
2023/07/08 12:50:14;;;;;;;5.30;2.10;;;;;;;;;;4996480;28;20029;-65
2023/07/08 12:52:42;;;;;;;4.47;1.95;;;;;;;;;;5013974;28;20032;-68
2023/07/08 12:55:10;;;;;;;8.35;2.80;;;;;;;;;;5013779;28;20042;-64
2023/07/08 12:57:36;;;;;;;4.22;2.55;;;;;;;;;;5014040;28;20424;-67
2023/07/08 13:00:03;;;;;;;5.05;2.67;;;;;;;;;;5014600;28;20029;-64
2023/07/08 13:02:31;;;;;;;4.07;2.30;;;;;;;;;;5013927;28;20061;-66
2023/07/08 13:05:03;;;;;;;5.47;2.45;;;;;;;;;;5012682;28;20022;-66
2023/07/08 13:07:41;;;;;;;7.28;2.40;;;;;;;;;;5009431;28;20030;-67
2023/07/08 13:10:08;;;;;;;4.82;2.40;;;;;;;;;;5013450;28;20561;-68
2023/07/08 13:12:38;;;;;;;2.90;2.08;;;;;;;;;;5013814;28;20032;-65
2023/07/08 13:15:10;;;;;;;3.38;1.95;;;;;;;;;;5013801;28;20374;-65
2023/07/08 13:17:37;;;;;;;6.30;2.40;;;;;;;;;;5013501;28;20478;-66
2023/07/08 13:20:03;;;;;;;4.32;2.20;;;;;;;;;;5013495;28;20037;-64
2023/07/08 13:22:30;;;;;;;4.53;2.15;;;;;;;;;;5013531;28;20386;-66
2023/07/08 13:25:00;;;;;;;3.30;2.10;;;;;;;;;;5013609;28;20104;-66
2023/07/08 13:27:26;;;;;;;4.45;2.40;;;;;;;;;;5013320;28;20030;-66
2023/07/08 13:29:53;;;;;;;6.22;2.08;;;;;;;;;;5013374;28;20058;-67
2023/07/08 13:32:19;;;;;;;4.50;2.00;;;;;;;;;;5013460;28;20026;-66
2023/07/08 13:34:48;;;;;;;4.78;2.22;;;;;;;;;;5013240;28;20034;-68
2023/07/08 13:37:14;;;;;;;4.47;2.27;;;;;;;;;;5018580;28;20018;-67
2023/07/08 13:39:44;;;;;;;3.45;2.03;;;;;;;;;;5024232;28;20358;-65
2023/07/08 13:42:10;;;;;;;3.65;2.33;;;;;;;;;;5013246;28;20394;-66
2023/07/08 13:44:43;;;;;;;4.65;2.15;;;;;;;;;;5022249;28;20049;-65
2023/07/08 13:47:28;;;;;;;5.13;2.10;;;;;;;;;;5019445;28;20079;-67
2023/07/08 13:50:00;;;;;;;6.13;2.28;;;;;;;;;;5020607;28;20499;-65
2023/07/08 13:52:26;;;;;;;4.30;1.80;;;;;;;;;;5021620;28;20021;-68
2023/07/08 13:54:57;;;;;;;3.75;2.17;;;;;;;;;;5032956;28;20029;-66
2023/07/08 13:57:31;;;;;;;4.43;2.28;;;;;;;;;;5032924;28;20018;-66
2023/07/08 13:59:56;;;;;;;6.25;2.60;;;;;;;;;;5032856;28;20030;-66
2023/07/08 14:02:25;;;;;;;5.88;2.50;;;;;;;;;;5032526;28;20545;-65
2023/07/08 14:04:52;;;;;;;6.57;2.22;;;;;;;;;;5032790;28;20045;-66
2023/07/08 14:07:25;;;;;;;5.70;2.25;;;;;;;;;;5032653;28;20108;-66
2023/07/08 14:09:52;;;;;;;5.13;2.10;;;;;;;;;;5016501;28;20483;-66
2023/07/08 14:12:17;;;;;;;5.00;2.10;;;;;;;;;;5012798;28;20033;-65
2023/07/08 14:14:43;;;;;;;9.55;2.25;;;;;;;;;;5012932;28;20018;-64
2023/07/08 14:17:12;;;;;;;3.33;2.17;;;;;;;;;;5012621;28;20088;-67
2023/07/08 14:19:37;;;;;;;6.03;2.05;;;;;;;;;;5012723;28;20033;-65
2023/07/08 14:22:21;;;;;;;2.63;1.88;;;;;;;;;;5012853;28;20030;-67
2023/07/08 14:24:46;;;;;;;3.90;1.90;;;;;;;;;;5012808;28;20096;-69
2023/07/08 14:27:13;;;;;;;5.40;2.35;;;;;;;;;;5012680;28;20459;-65
2023/07/08 14:33:00;;;;;;;3.67;2.13;;;;;;;;;;5012771;28;20466;-67
2023/07/08 14:35:28;;;;;;;3.45;1.88;;;;;;;;;;5012663;28;20058;-67
2023/07/08 14:37:55;;;;;;;4.90;1.92;;;;;;;;;;5012449;28;20420;-67
2023/07/08 14:40:36;;;;;;;4.22;2.45;;;;;;;;;;5012491;28;20479;-66
2023/07/08 14:43:05;;;;;;;4.28;2.20;;;;;;;;;;5012349;28;20482;-66
2023/07/08 14:45:38;;;;;;;4.47;2.05;;;;;;;;;;5011831;28;20034;-66
2023/07/08 14:48:09;;;;;;;4.38;2.17;;;;;;;;;;5012158;28;20029;-65
2023/07/08 14:50:34;;;;;;;6.22;1.98;;;;;;;;;;5012480;28;20061;-65
2023/07/08 14:53:00;;;;;;;3.28;1.88;;;;;;;;;;5012391;28;20037;-64
2023/07/08 14:55:26;;;;;;;4.68;2.10;;;;;;;;;;5012662;28;20054;-67
2023/07/08 14:57:52;;;;;;;4.63;1.98;;;;;;;;;;5012340;28;20385;-64